Ventura — ZCDT2 — position and weather

sailwx.info

Track history (hours):
 
Tides and Currents Weather Stations Pressure Air Temp Water Temp Dewpoint Dewpoint Depression Visibility Wind Speed Wind Dir Waves Ship Positions

Ventura

Last reported at 2017-Jul-28 05:27 UTC. Time now 2017-Jul-28 08:37 UTC.
Position N 28°48' W 017°39'.

Length 289 m; draft 8.6 m.

Type: Passenger vessel. MMSI: 310562000.

Date/timePositionNaut miles runAvg speedWind from/ knotsBaromVisibWave heightAir tempDewpointWater temp
2017-Jul-28 05:27N 28°48' W 017°39'2217.9
2017-Jul-28 04:15N 29°09' W 017°34'517.8
2017-Jul-28 03:57N 29°14' W 017°34'1317.8
2017-Jul-28 03:12N 29°27' W 017°31'418.5
2017-Jul-28 03:00N 29°31' W 017°31'1117.5
2017-Jul-28 02:23N 29°42' W 017°29'717.8
2017-Jul-28 02:00N 29°48' W 017°27'917.7
2017-Jul-28 01:29N 29°57' W 017°26'917.8
2017-Jul-28 01:00N 30°06' W 017°24'918.0
2017-Jul-28 00:30N 30°14' W 017°22'918.2
2017-Jul-28 00:00N 30°24' W 017°20'918.4
2017-Jul-27 23:30N 30°33' W 017°19'918.4
2017-Jul-27 23:00N 30°42' W 017°17'918.2
2017-Jul-27 22:30N 30°51' W 017°15'917.7
2017-Jul-27 22:00N 30°59' W 017°13'918.1
2017-Jul-27 21:30N 31°08' W 017°12'1918.0
2017-Jul-27 20:26N 31°27' W 017°08'818.0
2017-Jul-27 20:00N 31°35' W 017°06'1017.9
2017-Jul-27 19:28N 31°45' W 017°05'817.9
2017-Jul-27 19:00N 31°53' W 017°03'918.0
2017-Jul-27 18:30N 32°01' W 017°01'1118.0
2017-Jul-27 17:54N 32°12' W 016°59'718.1
2017-Jul-27 17:30N 32°19' W 016°58'917.2
2017-Jul-27 17:00N 32°28' W 016°56'816.7
2017-Jul-27 16:30N 32°36' W 016°54'3 5.0
2017-Jul-27 16:00N 32°39' W 016°55'0 0.0
2017-Jul-27 13:57N 32°39' W 016°55'0 0.1
2017-Jul-27 06:17N 32°39' W 016°54'1 3.0
2017-Jul-27 05:59N 32°38' W 016°53'3 5.8
2017-Jul-27 05:29N 32°37' W 016°50'916.4
2017-Jul-27 04:57N 32°41' W 016°40'3517.8
2017-Jul-27 03:00N 33°00' W 016°06'611.3 050 / 161017.527.0 22.117.622.0
2017-Jul-27 02:27N 33°06' W 016°06'715.0
2017-Jul-27 01:59N 33°12' W 016°03'1115.0
2017-Jul-27 01:16N 33°23' W 015°58'515.8
2017-Jul-27 00:57N 33°27' W 015°56'715.7
2017-Jul-27 00:30N 33°34' W 015°52'1215.6
2017-Jul-26 23:46N 33°44' W 015°47'515.5
2017-Jul-26 23:26N 33°49' W 015°45'715.3
2017-Jul-26 22:59N 33°55' W 015°41'715.0
2017-Jul-26 22:31N 34°02' W 015°38'1015.2
2017-Jul-26 21:51N 34°11' W 015°33'2414.6
2017-Jul-26 20:12N 34°33' W 015°22'615.4
2017-Jul-26 19:50N 34°38' W 015°19'615.4
2017-Jul-26 19:26N 34°44' W 015°16'715.8
2017-Jul-26 19:00N 34°50' W 015°13'39269.2
2017-Jul-26 19:00N 34°48' W 015°12'1718.0 030 / 191018.810.8 22.816.321.0
2017-Jul-26 18:02N 35°04' W 015°06'116.0
2017-Jul-26 17:59N 35°05' W 015°05'916.2
2017-Jul-26 17:25N 35°14' W 015°01'1415.9
2017-Jul-26 16:31N 35°27' W 014°54'015.9
2017-Jul-26 16:30N 35°27' W 014°54'816.0
2017-Jul-26 16:01N 35°34' W 014°50'816.0
2017-Jul-26 15:30N 35°42' W 014°46'816.0
2017-Jul-26 14:59N 35°49' W 014°42'1616.0
2017-Jul-26 14:01N 36°04' W 014°35'915.7
2017-Jul-26 13:26N 36°12' W 014°30'815.7
2017-Jul-26 12:55N 36°20' W 014°26'1016.2
2017-Jul-26 12:18N 36°29' W 014°22'1116.6
2017-Jul-26 11:39N 36°39' W 014°16'616.1
2017-Jul-26 11:17N 36°44' W 014°14'516.1
2017-Jul-26 11:01N 36°48' W 014°11'4254.8
2017-Jul-26 11:00N 36°48' W 014°06'815.8 010 / 201020.610.8 21.016.020.0
2017-Jul-26 10:31N 36°56' W 014°08'916.1
2017-Jul-26 09:58N 37°04' W 014°03'816.0
2017-Jul-26 09:28N 37°11' W 013°59'715.9
2017-Jul-26 09:00N 37°18' W 013°56'915.9
2017-Jul-26 08:25N 37°26' W 013°51'1228.4
2017-Jul-26 08:00N 37°36' W 013°42'910.2 010 / 191020.310.8 20.112.120.9
2017-Jul-26 07:04N 37°45' W 013°41'116.0
2017-Jul-26 07:00N 37°46' W 013°40'1315.8
2017-Jul-26 06:12N 37°58' W 013°34'315.8
2017-Jul-26 06:00N 38°01' W 013°33'815.8
2017-Jul-26 05:31N 38°08' W 013°29'815.7
2017-Jul-26 05:01N 38°15' W 013°25'915.7
2017-Jul-26 04:28N 38°23' W 013°21'715.4
2017-Jul-26 04:01N 38°30' W 013°17'815.5
2017-Jul-26 03:30N 38°37' W 013°13'714.7
2017-Jul-26 03:00N 38°42' W 013°06'528.8 360 / 211020.510.8 20.515.520.8
2017-Jul-26 02:49N 38°47' W 013°08'715.2
2017-Jul-26 02:20N 38°54' W 013°04'515.1
2017-Jul-26 01:59N 38°58' W 013°01'1015.1
2017-Jul-26 01:21N 39°07' W 012°57'1915.4
2017-Jul-26 00:07N 39°25' W 012°47'315.3
2017-Jul-25 23:54N 39°28' W 012°45'815.6
2017-Jul-25 23:25N 39°35' W 012°42'819.9
2017-Jul-25 23:00N 39°42' W 012°36'244.6 010 / 211021.510.8 19.815.620.0
2017-Jul-25 22:57N 39°41' W 012°38'1014.6
2017-Jul-25 22:17N 39°50' W 012°33'2215.4
2017-Jul-25 20:52N 40°10' W 012°22'615.5
2017-Jul-25 20:30N 40°16' W 012°19'815.5
2017-Jul-25 20:00N 40°23' W 012°15'815.4
2017-Jul-25 19:30N 40°30' W 012°11'815.4
2017-Jul-25 19:00N 40°37' W 012°07'815.4
2017-Jul-25 18:30N 40°44' W 012°03'815.6
2017-Jul-25 18:00N 40°51' W 011°59'815.6
2017-Jul-25 17:30N 40°58' W 011°55'815.6
2017-Jul-25 17:00N 41°06' W 011°51'3417.0
2017-Jul-25 15:00N 41°36' W 011°30'11115.9 360 / 221022.727.0 22.015.019.7
2017-Jul-25 08:00N 43°18' W 010°30'34115.9 020 / 151024.710.8 20.011.819.1
2017-Jul-24 10:33N 48°00' W 005°57'2817.7
2017-Jul-24 08:58N 48°23' W 005°33'817.9
2017-Jul-24 08:30N 48°30' W 005°25'917.6
2017-Jul-24 08:00N 48°37' W 005°17'917.1
2017-Jul-24 07:30N 48°43' W 005°07'816.7
2017-Jul-24 07:00N 48°48' W 004°58'816.1
2017-Jul-24 06:30N 48°54' W 004°49'815.4
2017-Jul-24 06:00N 48°59' W 004°40'815.0
2017-Jul-24 05:29N 49°04' W 004°31'914.9
2017-Jul-24 04:54N 49°10' W 004°21'1915.0
2017-Jul-24 03:39N 49°22' W 003°60'415.7
2017-Jul-24 03:23N 49°25' W 003°55'616.2
2017-Jul-24 03:00N 49°29' W 003°48'916.8
2017-Jul-24 02:28N 49°35' W 003°38'817.9
2017-Jul-24 02:00N 49°42' W 003°30'918.0
2017-Jul-24 01:30N 49°47' W 003°18'918.4
2017-Jul-24 01:00N 49°52' W 003°06'918.5
2017-Jul-24 00:30N 49°58' W 002°55'918.1
2017-Jul-24 00:00N 50°00' W 002°42'917.5
2017-Jul-23 23:30N 50°03' W 002°29'916.7
2017-Jul-23 22:58N 50°07' W 002°16'715.8
2017-Jul-23 22:30N 50°11' W 002°06'714.9
2017-Jul-23 22:00N 50°14' W 001°56'714.3
2017-Jul-23 21:30N 50°18' W 001°47'713.5
2017-Jul-23 21:00N 50°21' W 001°37'4372.0
2017-Jul-23 21:00N 50°18' W 001°42'1122.2 250 / 191012.710.8 16.214.117.1
2017-Jul-23 20:30N 50°24' W 001°28'713.1
2017-Jul-23 19:59N 50°27' W 001°19'612.5
2017-Jul-23 19:30N 50°30' W 001°10'611.7
2017-Jul-23 19:00N 50°33' W 001°02'612.6
2017-Jul-23 18:31N 50°39' W 000°59'510.1
2017-Jul-23 18:00N 50°43' W 001°02'817.0
2017-Jul-23 17:31N 50°46' W 001°15'5 9.8
2017-Jul-23 17:00N 50°50' W 001°19'5 9.1
2017-Jul-23 16:30N 50°53' W 001°24'0 0.8
2017-Jul-23 15:58N 50°54' W 001°24'0 0.0
2017-Jul-23 15:28N 50°54' W 001°24'0 0.0
2017-Jul-23 14:55N 50°54' W 001°24'0 0.0
2017-Jul-23 14:28N 50°54' W 001°24'0 0.0
2017-Jul-23 13:58N 50°54' W 001°24'0 0.0
2017-Jul-23 13:28N 50°54' W 001°24'0 0.0
2017-Jul-23 12:58N 50°54' W 001°24'0 0.0
2017-Jul-23 12:28N 50°54' W 001°24'0 0.0
2017-Jul-23 11:58N 50°54' W 001°24'0 0.0
2017-Jul-23 11:28N 50°54' W 001°24'0 0.0
2017-Jul-23 10:58N 50°54' W 001°24'0 0.0
2017-Jul-23 10:28N 50°54' W 001°24'0 0.0
2017-Jul-23 09:58N 50°54' W 001°24'0 0.0
2017-Jul-23 09:19N 50°54' W 001°24'0 0.0
2017-Jul-23 08:58N 50°54' W 001°24'0 0.0
2017-Jul-23 08:28N 50°54' W 001°24'0 0.0
2017-Jul-23 07:55N 50°54' W 001°24'0 0.0
2017-Jul-23 07:28N 50°54' W 001°24'0 0.0
2017-Jul-23 06:52N 50°54' W 001°24'0 0.0
2017-Jul-23 06:28N 50°54' W 001°24'0 0.0
2017-Jul-23 05:58N 50°54' W 001°24'0 0.0
2017-Jul-23 05:28N 50°54' W 001°24'1 2.5
2017-Jul-23 05:00N 50°53' W 001°23'5 9.3
2017-Jul-23 04:30N 50°49' W 001°18'4 8.0
2017-Jul-23 04:01N 50°46' W 001°14'816.2
2017-Jul-23 03:31N 50°44' W 001°02'5 9.2
2017-Jul-23 03:00N 50°39' W 000°59'611.6
2017-Jul-23 02:30N 50°34' W 001°01'713.6
2017-Jul-23 02:00N 50°31' W 001°11'610.7
2017-Jul-23 01:24N 50°28' W 001°20'510.7
2017-Jul-23 00:57N 50°26' W 001°27'510.7
2017-Jul-23 00:27N 50°24' W 001°34'510.9
2017-Jul-23 00:00N 50°22' W 001°41'611.0
2017-Jul-22 23:29N 50°20' W 001°50'612.0
2017-Jul-22 23:00N 50°18' W 001°58'1112.6
2017-Jul-22 22:08N 50°08' W 002°06'215.1
2017-Jul-22 22:01N 50°06' W 002°07'815.1
2017-Jul-22 21:30N 49°59' W 002°11'816.0
2017-Jul-22 21:00N 49°57' W 002°23'816.4
2017-Jul-22 20:30N 49°54' W 002°35'816.6
2017-Jul-22 20:00N 49°52' W 002°48'816.7
2017-Jul-22 19:30N 49°49' W 002°60'816.7
2017-Jul-22 19:00N 49°44' W 003°10'816.5
2017-Jul-22 18:30N 49°39' W 003°19'816.3
2017-Jul-22 18:00N 49°33' W 003°28'2516.8
2017-Jul-22 16:31N 49°18' W 003°60'2916.9
2017-Jul-22 14:49N 49°01' W 004°35'1416.8
2017-Jul-22 14:00N 48°52' W 004°51'816.5
2017-Jul-22 13:30N 48°48' W 005°01'816.4
2017-Jul-22 13:00N 48°42' W 005°10'816.3
2017-Jul-22 12:30N 48°36' W 005°19'815.6
2017-Jul-22 12:00N 48°30' W 005°26'815.1
2017-Jul-22 11:30N 48°23' W 005°32'1314.7
2017-Jul-22 10:39N 48°12' W 005°41'11016.6
2017-Jul-22 04:00N 46°36' W 007°00'43814.7 270 / 321013.910.8 17.513.118.3
2017-Jul-20 22:07N 39°35' W 009°46'815.3
2017-Jul-20 21:34N 39°27' W 009°46'214.9
2017-Jul-20 21:28N 39°26' W 009°46'715.0
2017-Jul-20 21:00N 39°19' W 009°45'815.1
2017-Jul-20 20:30N 39°11' W 009°45'815.3
2017-Jul-20 20:00N 39°03' W 009°44'815.5
2017-Jul-20 19:30N 38°56' W 009°44'815.3
2017-Jul-20 19:00N 38°48' W 009°43'714.9
2017-Jul-20 18:31N 38°41' W 009°41'612.9
2017-Jul-20 18:00N 38°38' W 009°34'713.5
2017-Jul-20 17:30N 38°36' W 009°26'612.4
2017-Jul-20 17:00N 38°40' W 009°19'712.4
2017-Jul-20 16:27N 38°41' W 009°10'3 6.0
2017-Jul-20 16:00N 38°43' W 009°07'0 0.0
2017-Jul-20 15:27N 38°43' W 009°07'0 0.0
2017-Jul-20 15:00N 38°43' W 009°07'0 0.0
2017-Jul-20 14:00N 38°43' W 009°07'0 0.0
2017-Jul-20 13:30N 38°43' W 009°07'0 0.0
2017-Jul-20 13:00N 38°43' W 009°07'0 0.0
2017-Jul-20 12:30N 38°43' W 009°07'0 0.0
2017-Jul-20 11:57N 38°43' W 009°07'0 0.0
2017-Jul-20 11:30N 38°43' W 009°07'0 0.0
2017-Jul-20 11:00N 38°43' W 009°07'0 0.0
2017-Jul-20 10:30N 38°43' W 009°07'0 0.0
2017-Jul-20 10:00N 38°43' W 009°07'0 0.0
2017-Jul-20 09:27N 38°43' W 009°07'0 0.0
2017-Jul-20 09:00N 38°43' W 009°07'0 0.0
2017-Jul-20 08:27N 38°43' W 009°07'0 0.0
2017-Jul-20 08:00N 38°43' W 009°07'0 0.0
2017-Jul-20 07:27N 38°43' W 009°07'0 0.0
2017-Jul-20 07:00N 38°43' W 009°07'0 0.0
2017-Jul-20 06:30N 38°43' W 009°07'4 7.5
2017-Jul-20 06:00N 38°41' W 009°12'511.0
2017-Jul-20 05:30N 38°40' W 009°19'715.1
2017-Jul-20 05:00N 38°34' W 009°25'917.5
2017-Jul-20 04:30N 38°26' W 009°29'816.8
2017-Jul-20 04:00N 38°18' W 009°33'816.8
2017-Jul-20 03:30N 38°10' W 009°35'816.9
2017-Jul-20 03:00N 38°02' W 009°37'916.6
2017-Jul-20 02:30N 37°54' W 009°42'816.5
2017-Jul-20 02:00N 37°46' W 009°45'816.6
2017-Jul-20 01:30N 37°39' W 009°49'816.3
2017-Jul-20 01:00N 37°31' W 009°52'816.1
2017-Jul-20 00:30N 37°24' W 009°56'2316.8
2017-Jul-19 23:10N 37°02' W 010°05'847.2
2017-Jul-19 23:00N 36°54' W 010°06'4 7.6 330 / 201017.910.8 20.017.622.0
2017-Jul-19 22:28N 36°51' W 010°09'1916.7
2017-Jul-19 21:19N 36°33' W 010°17'2016.7
2017-Jul-19 20:06N 36°13' W 010°25'25216.8
2017-Jul-19 05:05N 32°15' W 012°00'117.0
2017-Jul-19 05:00N 32°13' W 012°01'917.3
2017-Jul-19 04:30N 32°05' W 012°04'917.4
2017-Jul-19 04:00N 31°57' W 012°07'917.4
2017-Jul-19 03:30N 31°48' W 012°10'917.4
2017-Jul-19 03:00N 31°40' W 012°14'917.5
2017-Jul-19 02:30N 31°32' W 012°17'817.2
2017-Jul-19 02:01N 31°24' W 012°20'917.1
2017-Jul-19 01:31N 31°16' W 012°23'917.4
2017-Jul-19 01:00N 31°07' W 012°26'917.4
2017-Jul-19 00:31N 30°59' W 012°29'917.1
2017-Jul-19 00:01N 30°51' W 012°33'816.9
2017-Jul-18 23:31N 30°43' W 012°36'816.7
2017-Jul-18 23:01N 30°35' W 012°39'816.6
2017-Jul-18 22:31N 30°27' W 012°42'816.9
2017-Jul-18 22:01N 30°19' W 012°45'816.9
2017-Jul-18 21:31N 30°11' W 012°48'816.5
2017-Jul-18 21:01N 30°03' W 012°51'816.4
2017-Jul-18 20:31N 29°56' W 012°54'816.8
2017-Jul-18 20:01N 29°48' W 012°57'816.6
2017-Jul-18 19:31N 29°40' W 012°60'916.9
2017-Jul-18 19:00N 29°32' W 013°03'816.9
2017-Jul-18 18:30N 29°24' W 013°06'816.9
2017-Jul-18 18:00N 29°16' W 013°09'817.0
2017-Jul-18 17:30N 29°08' W 013°12'815.8
2017-Jul-18 17:00N 29°03' W 013°19'816.1
2017-Jul-18 16:31N 28°59' W 013°27'4 8.7
2017-Jul-18 16:00N 28°58' W 013°32'0 0.6
2017-Jul-18 15:29N 28°58' W 013°32'0 0.0
2017-Jul-18 14:59N 28°58' W 013°32'0 0.0
2017-Jul-18 13:59N 28°58' W 013°32'0 0.0
2017-Jul-18 13:29N 28°58' W 013°32'0 0.0
2017-Jul-18 12:53N 28°58' W 013°32'0 0.0
2017-Jul-18 12:23N 28°58' W 013°32'0 0.0
2017-Jul-18 11:53N 28°58' W 013°32'0 0.0
2017-Jul-18 11:23N 28°58' W 013°32'0 0.0
2017-Jul-18 10:50N 28°58' W 013°32'0 0.0
2017-Jul-18 10:26N 28°58' W 013°32'0 0.0
2017-Jul-18 09:56N 28°58' W 013°32'0 0.0
2017-Jul-18 09:26N 28°58' W 013°32'0 0.0
2017-Jul-18 08:56N 28°58' W 013°32'0 0.0
2017-Jul-18 08:26N 28°58' W 013°32'0 0.0
2017-Jul-18 07:59N 28°58' W 013°32'0 0.0
2017-Jul-18 07:29N 28°58' W 013°32'0 0.0
2017-Jul-18 06:59N 28°58' W 013°32'0 0.0
2017-Jul-18 06:29N 28°58' W 013°32'1 2.3
2017-Jul-18 06:00N 28°57' W 013°32'4 8.4
2017-Jul-18 05:30N 28°53' W 013°35'  
Track history (hours):
 
Tides and Currents Weather Stations Pressure Air Temp Water Temp Dewpoint Dewpoint Depression Visibility Wind Speed Wind Dir Waves Ship Positions

Ventura

Last reported at 2017-Jul-28 05:27 UTC. Time now 2017-Jul-28 08:37 UTC.
Position N 28°48' W 017°39'.

Length 289 m; draft 8.6 m.

Type: Passenger vessel. MMSI: 310562000.

Date/timePositionNaut miles runAvg speedWind from/ knotsBaromVisibWave heightAir tempDewpointWater temp
2017-Jul-28 05:27N 28°48' W 017°39'2217.9
2017-Jul-28 04:15N 29°09' W 017°34'517.8
2017-Jul-28 03:57N 29°14' W 017°34'1317.8
2017-Jul-28 03:12N 29°27' W 017°31'418.5
2017-Jul-28 03:00N 29°31' W 017°31'1117.5
2017-Jul-28 02:23N 29°42' W 017°29'717.8
2017-Jul-28 02:00N 29°48' W 017°27'917.7
2017-Jul-28 01:29N 29°57' W 017°26'917.8
2017-Jul-28 01:00N 30°06' W 017°24'918.0
2017-Jul-28 00:30N 30°14' W 017°22'918.2
2017-Jul-28 00:00N 30°24' W 017°20'918.4
2017-Jul-27 23:30N 30°33' W 017°19'918.4
2017-Jul-27 23:00N 30°42' W 017°17'918.2
2017-Jul-27 22:30N 30°51' W 017°15'917.7
2017-Jul-27 22:00N 30°59' W 017°13'918.1
2017-Jul-27 21:30N 31°08' W 017°12'1918.0
2017-Jul-27 20:26N 31°27' W 017°08'818.0
2017-Jul-27 20:00N 31°35' W 017°06'1017.9
2017-Jul-27 19:28N 31°45' W 017°05'817.9
2017-Jul-27 19:00N 31°53' W 017°03'918.0
2017-Jul-27 18:30N 32°01' W 017°01'1118.0
2017-Jul-27 17:54N 32°12' W 016°59'718.1
2017-Jul-27 17:30N 32°19' W 016°58'917.2
2017-Jul-27 17:00N 32°28' W 016°56'816.7
2017-Jul-27 16:30N 32°36' W 016°54'3 5.0
2017-Jul-27 16:00N 32°39' W 016°55'0 0.0
2017-Jul-27 13:57N 32°39' W 016°55'0 0.1
2017-Jul-27 06:17N 32°39' W 016°54'1 3.0
2017-Jul-27 05:59N 32°38' W 016°53'3 5.8
2017-Jul-27 05:29N 32°37' W 016°50'916.4
2017-Jul-27 04:57N 32°41' W 016°40'3517.8
2017-Jul-27 03:00N 33°00' W 016°06'611.3 050 / 161017.527.0 22.117.622.0
2017-Jul-27 02:27N 33°06' W 016°06'715.0
2017-Jul-27 01:59N 33°12' W 016°03'1115.0
2017-Jul-27 01:16N 33°23' W 015°58'515.8
2017-Jul-27 00:57N 33°27' W 015°56'715.7
2017-Jul-27 00:30N 33°34' W 015°52'1215.6
2017-Jul-26 23:46N 33°44' W 015°47'515.5
2017-Jul-26 23:26N 33°49' W 015°45'715.3
2017-Jul-26 22:59N 33°55' W 015°41'715.0
2017-Jul-26 22:31N 34°02' W 015°38'1015.2
2017-Jul-26 21:51N 34°11' W 015°33'2414.6
2017-Jul-26 20:12N 34°33' W 015°22'615.4
2017-Jul-26 19:50N 34°38' W 015°19'615.4
2017-Jul-26 19:26N 34°44' W 015°16'715.8
2017-Jul-26 19:00N 34°50' W 015°13'39269.2
2017-Jul-26 19:00N 34°48' W 015°12'1718.0 030 / 191018.810.8 22.816.321.0
2017-Jul-26 18:02N 35°04' W 015°06'116.0
2017-Jul-26 17:59N 35°05' W 015°05'916.2
2017-Jul-26 17:25N 35°14' W 015°01'1415.9
2017-Jul-26 16:31N 35°27' W 014°54'015.9
2017-Jul-26 16:30N 35°27' W 014°54'816.0
2017-Jul-26 16:01N 35°34' W 014°50'816.0
2017-Jul-26 15:30N 35°42' W 014°46'816.0
2017-Jul-26 14:59N 35°49' W 014°42'1616.0
2017-Jul-26 14:01N 36°04' W 014°35'915.7
2017-Jul-26 13:26N 36°12' W 014°30'815.7
2017-Jul-26 12:55N 36°20' W 014°26'1016.2
2017-Jul-26 12:18N 36°29' W 014°22'1116.6
2017-Jul-26 11:39N 36°39' W 014°16'616.1
2017-Jul-26 11:17N 36°44' W 014°14'516.1
2017-Jul-26 11:01N 36°48' W 014°11'4254.8
2017-Jul-26 11:00N 36°48' W 014°06'815.8 010 / 201020.610.8 21.016.020.0
2017-Jul-26 10:31N 36°56' W 014°08'916.1
2017-Jul-26 09:58N 37°04' W 014°03'816.0
2017-Jul-26 09:28N 37°11' W 013°59'715.9
2017-Jul-26 09:00N 37°18' W 013°56'915.9
2017-Jul-26 08:25N 37°26' W 013°51'1228.4
2017-Jul-26 08:00N 37°36' W 013°42'910.2 010 / 191020.310.8 20.112.120.9
2017-Jul-26 07:04N 37°45' W 013°41'116.0
2017-Jul-26 07:00N 37°46' W 013°40'1315.8
2017-Jul-26 06:12N 37°58' W 013°34'315.8
2017-Jul-26 06:00N 38°01' W 013°33'815.8
2017-Jul-26 05:31N 38°08' W 013°29'815.7
2017-Jul-26 05:01N 38°15' W 013°25'915.7
2017-Jul-26 04:28N 38°23' W 013°21'715.4
2017-Jul-26 04:01N 38°30' W 013°17'815.5
2017-Jul-26 03:30N 38°37' W 013°13'714.7
2017-Jul-26 03:00N 38°42' W 013°06'528.8 360 / 211020.510.8 20.515.520.8
2017-Jul-26 02:49N 38°47' W 013°08'715.2
2017-Jul-26 02:20N 38°54' W 013°04'515.1
2017-Jul-26 01:59N 38°58' W 013°01'1015.1
2017-Jul-26 01:21N 39°07' W 012°57'1915.4
2017-Jul-26 00:07N 39°25' W 012°47'315.3
2017-Jul-25 23:54N 39°28' W 012°45'815.6
2017-Jul-25 23:25N 39°35' W 012°42'819.9
2017-Jul-25 23:00N 39°42' W 012°36'244.6 010 / 211021.510.8 19.815.620.0
2017-Jul-25 22:57N 39°41' W 012°38'1014.6
2017-Jul-25 22:17N 39°50' W 012°33'2215.4
2017-Jul-25 20:52N 40°10' W 012°22'615.5
2017-Jul-25 20:30N 40°16' W 012°19'815.5
2017-Jul-25 20:00N 40°23' W 012°15'815.4
2017-Jul-25 19:30N 40°30' W 012°11'815.4
2017-Jul-25 19:00N 40°37' W 012°07'815.4
2017-Jul-25 18:30N 40°44' W 012°03'815.6
2017-Jul-25 18:00N 40°51' W 011°59'815.6
2017-Jul-25 17:30N 40°58' W 011°55'815.6
2017-Jul-25 17:00N 41°06' W 011°51'3417.0
2017-Jul-25 15:00N 41°36' W 011°30'11115.9 360 / 221022.727.0 22.015.019.7
2017-Jul-25 08:00N 43°18' W 010°30'34115.9 020 / 151024.710.8 20.011.819.1
2017-Jul-24 10:33N 48°00' W 005°57'2817.7
2017-Jul-24 08:58N 48°23' W 005°33'817.9
2017-Jul-24 08:30N 48°30' W 005°25'917.6
2017-Jul-24 08:00N 48°37' W 005°17'917.1
2017-Jul-24 07:30N 48°43' W 005°07'816.7
2017-Jul-24 07:00N 48°48' W 004°58'816.1
2017-Jul-24 06:30N 48°54' W 004°49'815.4
2017-Jul-24 06:00N 48°59' W 004°40'815.0
2017-Jul-24 05:29N 49°04' W 004°31'914.9
2017-Jul-24 04:54N 49°10' W 004°21'1915.0
2017-Jul-24 03:39N 49°22' W 003°60'415.7
2017-Jul-24 03:23N 49°25' W 003°55'616.2
2017-Jul-24 03:00N 49°29' W 003°48'916.8
2017-Jul-24 02:28N 49°35' W 003°38'817.9
2017-Jul-24 02:00N 49°42' W 003°30'918.0
2017-Jul-24 01:30N 49°47' W 003°18'918.4
2017-Jul-24 01:00N 49°52' W 003°06'918.5
2017-Jul-24 00:30N 49°58' W 002°55'918.1
2017-Jul-24 00:00N 50°00' W 002°42'917.5
2017-Jul-23 23:30N 50°03' W 002°29'916.7
2017-Jul-23 22:58N 50°07' W 002°16'715.8
2017-Jul-23 22:30N 50°11' W 002°06'714.9
2017-Jul-23 22:00N 50°14' W 001°56'714.3
2017-Jul-23 21:30N 50°18' W 001°47'713.5
2017-Jul-23 21:00N 50°21' W 001°37'4372.0
2017-Jul-23 21:00N 50°18' W 001°42'1122.2 250 / 191012.710.8 16.214.117.1
2017-Jul-23 20:30N 50°24' W 001°28'713.1
2017-Jul-23 19:59N 50°27' W 001°19'612.5
2017-Jul-23 19:30N 50°30' W 001°10'611.7
2017-Jul-23 19:00N 50°33' W 001°02'612.6
2017-Jul-23 18:31N 50°39' W 000°59'510.1
2017-Jul-23 18:00N 50°43' W 001°02'817.0
2017-Jul-23 17:31N 50°46' W 001°15'5 9.8
2017-Jul-23 17:00N 50°50' W 001°19'5 9.1
2017-Jul-23 16:30N 50°53' W 001°24'0 0.8
2017-Jul-23 15:58N 50°54' W 001°24'0 0.0
2017-Jul-23 15:28N 50°54' W 001°24'0 0.0
2017-Jul-23 14:55N 50°54' W 001°24'0 0.0
2017-Jul-23 14:28N 50°54' W 001°24'0 0.0
2017-Jul-23 13:58N 50°54' W 001°24'0 0.0
2017-Jul-23 13:28N 50°54' W 001°24'0 0.0
2017-Jul-23 12:58N 50°54' W 001°24'0 0.0
2017-Jul-23 12:28N 50°54' W 001°24'0 0.0
2017-Jul-23 11:58N 50°54' W 001°24'0 0.0
2017-Jul-23 11:28N 50°54' W 001°24'0 0.0
2017-Jul-23 10:58N 50°54' W 001°24'0 0.0
2017-Jul-23 10:28N 50°54' W 001°24'0 0.0
2017-Jul-23 09:58N 50°54' W 001°24'0 0.0
2017-Jul-23 09:19N 50°54' W 001°24'0 0.0
2017-Jul-23 08:58N 50°54' W 001°24'0 0.0
2017-Jul-23 08:28N 50°54' W 001°24'0 0.0
2017-Jul-23 07:55N 50°54' W 001°24'0 0.0
2017-Jul-23 07:28N 50°54' W 001°24'0 0.0
2017-Jul-23 06:52N 50°54' W 001°24'0 0.0
2017-Jul-23 06:28N 50°54' W 001°24'0 0.0
2017-Jul-23 05:58N 50°54' W 001°24'0 0.0
2017-Jul-23 05:28N 50°54' W 001°24'1 2.5
2017-Jul-23 05:00N 50°53' W 001°23'5 9.3
2017-Jul-23 04:30N 50°49' W 001°18'4 8.0
2017-Jul-23 04:01N 50°46' W 001°14'816.2
2017-Jul-23 03:31N 50°44' W 001°02'5 9.2
2017-Jul-23 03:00N 50°39' W 000°59'611.6
2017-Jul-23 02:30N 50°34' W 001°01'713.6
2017-Jul-23 02:00N 50°31' W 001°11'610.7
2017-Jul-23 01:24N 50°28' W 001°20'510.7
2017-Jul-23 00:57N 50°26' W 001°27'510.7
2017-Jul-23 00:27N 50°24' W 001°34'510.9
2017-Jul-23 00:00N 50°22' W 001°41'611.0
2017-Jul-22 23:29N 50°20' W 001°50'612.0
2017-Jul-22 23:00N 50°18' W 001°58'1112.6
2017-Jul-22 22:08N 50°08' W 002°06'215.1
2017-Jul-22 22:01N 50°06' W 002°07'815.1
2017-Jul-22 21:30N 49°59' W 002°11'816.0
2017-Jul-22 21:00N 49°57' W 002°23'816.4
2017-Jul-22 20:30N 49°54' W 002°35'816.6
2017-Jul-22 20:00N 49°52' W 002°48'816.7
2017-Jul-22 19:30N 49°49' W 002°60'816.7
2017-Jul-22 19:00N 49°44' W 003°10'816.5
2017-Jul-22 18:30N 49°39' W 003°19'816.3
2017-Jul-22 18:00N 49°33' W 003°28'2516.8
2017-Jul-22 16:31N 49°18' W 003°60'2916.9
2017-Jul-22 14:49N 49°01' W 004°35'1416.8
2017-Jul-22 14:00N 48°52' W 004°51'816.5
2017-Jul-22 13:30N 48°48' W 005°01'816.4
2017-Jul-22 13:00N 48°42' W 005°10'816.3
2017-Jul-22 12:30N 48°36' W 005°19'815.6
2017-Jul-22 12:00N 48°30' W 005°26'815.1
2017-Jul-22 11:30N 48°23' W 005°32'1314.7
2017-Jul-22 10:39N 48°12' W 005°41'11016.6
2017-Jul-22 04:00N 46°36' W 007°00'43814.7 270 / 321013.910.8 17.513.118.3
2017-Jul-20 22:07N 39°35' W 009°46'815.3
2017-Jul-20 21:34N 39°27' W 009°46'214.9
2017-Jul-20 21:28N 39°26' W 009°46'715.0
2017-Jul-20 21:00N 39°19' W 009°45'815.1
2017-Jul-20 20:30N 39°11' W 009°45'815.3
2017-Jul-20 20:00N 39°03' W 009°44'815.5
2017-Jul-20 19:30N 38°56' W 009°44'815.3
2017-Jul-20 19:00N 38°48' W 009°43'714.9
2017-Jul-20 18:31N 38°41' W 009°41'612.9
2017-Jul-20 18:00N 38°38' W 009°34'713.5
2017-Jul-20 17:30N 38°36' W 009°26'612.4
2017-Jul-20 17:00N 38°40' W 009°19'712.4
2017-Jul-20 16:27N 38°41' W 009°10'3 6.0
2017-Jul-20 16:00N 38°43' W 009°07'0 0.0
2017-Jul-20 15:27N 38°43' W 009°07'0 0.0
2017-Jul-20 15:00N 38°43' W 009°07'0 0.0
2017-Jul-20 14:00N 38°43' W 009°07'0 0.0
2017-Jul-20 13:30N 38°43' W 009°07'0 0.0
2017-Jul-20 13:00N 38°43' W 009°07'0 0.0
2017-Jul-20 12:30N 38°43' W 009°07'0 0.0
2017-Jul-20 11:57N 38°43' W 009°07'0 0.0
2017-Jul-20 11:30N 38°43' W 009°07'0 0.0
2017-Jul-20 11:00N 38°43' W 009°07'0 0.0
2017-Jul-20 10:30N 38°43' W 009°07'0 0.0
2017-Jul-20 10:00N 38°43' W 009°07'0 0.0
2017-Jul-20 09:27N 38°43' W 009°07'0 0.0
2017-Jul-20 09:00N 38°43' W 009°07'0 0.0
2017-Jul-20 08:27N 38°43' W 009°07'0 0.0
2017-Jul-20 08:00N 38°43' W 009°07'0 0.0
2017-Jul-20 07:27N 38°43' W 009°07'0 0.0
2017-Jul-20 07:00N 38°43' W 009°07'0 0.0
2017-Jul-20 06:30N 38°43' W 009°07'4 7.5
2017-Jul-20 06:00N 38°41' W 009°12'511.0
2017-Jul-20 05:30N 38°40' W 009°19'715.1
2017-Jul-20 05:00N 38°34' W 009°25'917.5
2017-Jul-20 04:30N 38°26' W 009°29'816.8
2017-Jul-20 04:00N 38°18' W 009°33'816.8
2017-Jul-20 03:30N 38°10' W 009°35'816.9
2017-Jul-20 03:00N 38°02' W 009°37'916.6
2017-Jul-20 02:30N 37°54' W 009°42'816.5
2017-Jul-20 02:00N 37°46' W 009°45'816.6
2017-Jul-20 01:30N 37°39' W 009°49'816.3
2017-Jul-20 01:00N 37°31' W 009°52'816.1
2017-Jul-20 00:30N 37°24' W 009°56'2316.8
2017-Jul-19 23:10N 37°02' W 010°05'847.2
2017-Jul-19 23:00N 36°54' W 010°06'4 7.6 330 / 201017.910.8 20.017.622.0
2017-Jul-19 22:28N 36°51' W 010°09'1916.7
2017-Jul-19 21:19N 36°33' W 010°17'2016.7
2017-Jul-19 20:06N 36°13' W 010°25'25216.8
2017-Jul-19 05:05N 32°15' W 012°00'117.0
2017-Jul-19 05:00N 32°13' W 012°01'917.3
2017-Jul-19 04:30N 32°05' W 012°04'917.4
2017-Jul-19 04:00N 31°57' W 012°07'917.4
2017-Jul-19 03:30N 31°48' W 012°10'917.4
2017-Jul-19 03:00N 31°40' W 012°14'917.5
2017-Jul-19 02:30N 31°32' W 012°17'817.2
2017-Jul-19 02:01N 31°24' W 012°20'917.1
2017-Jul-19 01:31N 31°16' W 012°23'917.4
2017-Jul-19 01:00N 31°07' W 012°26'917.4
2017-Jul-19 00:31N 30°59' W 012°29'917.1
2017-Jul-19 00:01N 30°51' W 012°33'816.9
2017-Jul-18 23:31N 30°43' W 012°36'816.7
2017-Jul-18 23:01N 30°35' W 012°39'816.6
2017-Jul-18 22:31N 30°27' W 012°42'816.9
2017-Jul-18 22:01N 30°19' W 012°45'816.9
2017-Jul-18 21:31N 30°11' W 012°48'816.5
2017-Jul-18 21:01N 30°03' W 012°51'816.4
2017-Jul-18 20:31N 29°56' W 012°54'816.8
2017-Jul-18 20:01N 29°48' W 012°57'816.6
2017-Jul-18 19:31N 29°40' W 012°60'916.9
2017-Jul-18 19:00N 29°32' W 013°03'816.9
2017-Jul-18 18:30N 29°24' W 013°06'816.9
2017-Jul-18 18:00N 29°16' W 013°09'817.0
2017-Jul-18 17:30N 29°08' W 013°12'815.8
2017-Jul-18 17:00N 29°03' W 013°19'816.1
2017-Jul-18 16:31N 28°59' W 013°27'4 8.7
2017-Jul-18 16:00N 28°58' W 013°32'0 0.6
2017-Jul-18 15:29N 28°58' W 013°32'0 0.0
2017-Jul-18 14:59N 28°58' W 013°32'0 0.0
2017-Jul-18 13:59N 28°58' W 013°32'0 0.0
2017-Jul-18 13:29N 28°58' W 013°32'0 0.0
2017-Jul-18 12:53N 28°58' W 013°32'0 0.0
2017-Jul-18 12:23N 28°58' W 013°32'0 0.0
2017-Jul-18 11:53N 28°58' W 013°32'0 0.0
2017-Jul-18 11:23N 28°58' W 013°32'0 0.0
2017-Jul-18 10:50N 28°58' W 013°32'0 0.0
2017-Jul-18 10:26N 28°58' W 013°32'0 0.0
2017-Jul-18 09:56N 28°58' W 013°32'0 0.0
2017-Jul-18 09:26N 28°58' W 013°32'0 0.0
2017-Jul-18 08:56N 28°58' W 013°32'0 0.0
2017-Jul-18 08:26N 28°58' W 013°32'0 0.0
2017-Jul-18 07:59N 28°58' W 013°32'0 0.0
2017-Jul-18 07:29N 28°58' W 013°32'0 0.0
2017-Jul-18 06:59N 28°58' W 013°32'0 0.0
2017-Jul-18 06:29N 28°58' W 013°32'1 2.3
2017-Jul-18 06:00N 28°57' W 013°32'4 8.4
2017-Jul-18 05:30N 28°53' W 013°35'  

Dump ship's entire track history